Time;durP1;ratioP1;P1;durP2;ratioP2;P2;SDS_P1;SDS_P2;PMS_P1;PMS_P2;Temp;Humidity;BMP_temperature;BMP_pressure;BME280_temperature;BME280_humidity;BME280_pressure;Samples;Min_cycle;Max_cycle;Signal;HPM_P1;HPM_P2
2023/06/29 00:02:32;;;;;;;4.70;3.70;;;18.90;67.60;;;;;;20897542;28;20215;-58
2023/06/29 00:12:34;;;;;;;4.50;3.67;;;18.90;68.30;;;;;;20894812;28;20210;-59
2023/06/29 00:22:35;;;;;;;8.53;3.80;;;18.70;69.20;;;;;;20846371;28;20214;-59
2023/06/29 00:32:37;;;;;;;6.87;4.10;;;18.60;70.00;;;;;;20840904;28;20209;-59
2023/06/29 00:42:40;;;;;;;6.03;4.20;;;;;;;;;;20838858;28;20633;-65
2023/06/29 00:52:42;;;;;;;8.50;3.80;;;18.20;71.20;;;;;;20837463;28;20205;-60
2023/06/29 01:02:45;;;;;;;6.20;3.63;;;;;;;;;;20837943;28;20246;-59
2023/06/29 01:12:48;;;;;;;5.57;4.10;;;;;;;;;;20836729;28;20232;-57
2023/06/29 01:23:00;;;;;;;6.87;5.00;;;18.10;73.40;;;;;;20836197;28;20232;-64
2023/06/29 01:33:03;;;;;;;7.90;4.70;;;;;;;;;;20834412;28;20209;-64
2023/06/29 01:43:05;;;;;;;7.60;4.00;;;;;;;;;;20834338;28;20660;-58
2023/06/29 01:53:07;;;;;;;6.63;4.33;;;;;;;;;;20833639;28;20213;-58
2023/06/29 02:03:09;;;;;;;5.83;4.20;;;;;;;;;;20832940;28;20699;-58
2023/06/29 02:13:12;;;;;;;6.40;4.37;;;;;;;;;;20832437;28;20291;-59
2023/06/29 02:23:14;;;;;;;7.07;4.20;;;;;;;;;;20831076;28;20319;-58
2023/06/29 02:33:16;;;;;;;7.23;4.10;;;;;;;;;;20831477;28;20206;-62
2023/06/29 02:43:18;;;;;;;6.73;4.27;;;;;;;;;;20829875;28;20235;-61
2023/06/29 02:53:20;;;;;;;9.60;4.80;;;;;;;;;;20829167;28;20213;-58
2023/06/29 03:03:22;;;;;;;7.60;4.10;;;;;;;;;;20831546;28;20244;-60
2023/06/29 03:13:25;;;;;;;6.67;4.53;;;;;;;;;;20827217;28;20208;-64
2023/06/29 03:23:27;;;;;;;4.67;3.90;;;;;;;;;;20826859;28;20264;-59
2023/06/29 03:33:29;;;;;;;10.30;4.30;;;;;;;;;;20828967;28;20212;-58
2023/06/29 03:43:31;;;;;;;5.57;4.57;;;;;;;;;;20827259;28;20299;-60
2023/06/29 03:53:33;;;;;;;6.60;4.10;;;;;;;;;;20834622;28;20219;-59
2023/06/29 04:03:36;;;;;;;5.23;4.70;;;;;;;;;;20914448;28;20286;-63
2023/06/29 04:13:38;;;;;;;7.03;4.87;;;;;;;;;;20909269;28;20216;-65
2023/06/29 04:23:40;;;;;;;6.17;4.80;;;;;;;;;;20923267;28;20324;-58
2023/06/29 04:33:43;;;;;;;5.43;4.80;;;;;;;;;;20869295;28;20202;-58
2023/06/29 04:43:47;;;;;;;7.97;5.00;;;;;;;;;;20839507;28;20246;-59
2023/06/29 04:53:49;;;;;;;14.27;5.43;;;;;;;;;;20838588;28;20240;-59
2023/06/29 05:03:52;;;;;;;9.33;4.73;;;;;;;;;;20865563;28;20244;-63
2023/06/29 05:13:54;;;;;;;8.00;5.57;;;;;;;;;;20846869;28;20292;-68
2023/06/29 05:23:56;;;;;;;14.20;5.43;;;;;;;;;;20859762;28;20274;-61
2023/06/29 05:33:58;;;;;;;21.43;5.87;;;;;;;;;;20898965;28;20215;-61
2023/06/29 05:44:00;;;;;;;18.70;6.10;;;19.00;84.30;;;;;;20836014;28;20243;-62
2023/06/29 05:54:03;;;;;;;11.73;5.30;;;19.00;84.90;;;;;;20835191;28;20211;-64
2023/06/29 06:04:05;;;;;;;7.97;5.03;;;19.50;83.40;;;;;;20832827;28;20342;-66
2023/06/29 06:14:07;;;;;;;16.83;6.27;;;19.60;83.30;;;;;;20827988;28;20200;-62
2023/06/29 06:24:10;;;;;;;16.00;7.33;;;19.80;82.20;;;;;;20829827;28;20315;-65
2023/06/29 06:34:11;;;;;;;13.07;5.53;;;19.90;81.20;;;;;;20845750;28;20255;-64
2023/06/29 06:44:13;;;;;;;17.10;8.77;;;20.10;80.50;;;;;;20844933;28;20224;-64
2023/06/29 06:54:15;;;;;;;16.57;10.30;;;20.50;79.70;;;;;;20848534;28;20660;-69
2023/06/29 07:04:17;;;;;;;11.30;7.60;;;20.80;78.70;;;;;;20861820;28;20271;-67
2023/06/29 07:14:21;;;;;;;13.37;4.77;;;21.20;77.60;;;;;;20848856;28;20200;-66
2023/06/29 07:24:23;;;;;;;12.17;4.90;;;21.50;76.30;;;;;;20853342;28;20263;-64
2023/06/29 07:34:24;;;;;;;23.87;14.10;;;21.80;74.60;;;;;;20839185;28;22959;-64
2023/06/29 07:44:27;;;;;;;9.43;4.87;;;22.10;72.70;;;;;;20766870;28;20236;-69
2023/06/29 07:54:29;;;;;;;10.40;4.63;;;22.40;71.00;;;;;;20765403;28;20284;-67
2023/06/29 08:04:30;;;;;;;8.90;3.73;;;22.60;69.10;;;;;;20800719;28;20336;-65
2023/06/29 08:14:37;;;;;;;6.90;4.33;;;23.00;67.00;;;;;;20823698;28;20213;-64
2023/06/29 08:24:38;;;;;;;4.90;3.30;;;23.30;65.00;;;;;;20767300;28;20280;-66
2023/06/29 08:34:40;;;;;;;9.20;5.27;;;23.60;63.10;;;;;;20757101;28;20217;-66
2023/06/29 08:44:42;;;;;;;12.70;4.50;;;23.80;60.80;;;;;;20756778;28;20291;-66
2023/06/29 08:54:44;;;;;;;6.13;2.90;;;24.00;59.00;;;;;;20756614;28;20616;-69
2023/06/29 09:04:46;;;;;;;4.97;2.60;;;24.40;56.50;;;;;;20756907;28;20332;-64
2023/06/29 09:14:48;;;;;;;5.47;2.60;;;24.60;55.80;;;;;;20783163;28;20244;-65
2023/06/29 09:24:56;;;;;;;6.43;3.27;;;24.80;54.90;;;;;;20754485;28;20236;-64
2023/06/29 09:35:13;;;;;;;3.57;2.70;;;25.00;53.70;;;;;;20753716;28;20288;-63
2023/06/29 09:45:15;;;;;;;7.47;2.20;;;25.20;52.90;;;;;;20768094;28;20311;-68
2023/06/29 09:55:18;;;;;;;2.80;2.17;;;25.40;52.50;;;;;;20750935;28;20292;-69
2023/06/29 10:05:20;;;;;;;2.63;2.10;;;25.60;51.70;;;;;;20750897;28;20277;-65
2023/06/29 10:15:26;;;;;;;7.30;2.70;;;25.80;51.10;;;;;;20750938;28;20209;-64
2023/06/29 10:25:30;;;;;;;3.47;2.43;;;26.10;50.60;;;;;;20749898;28;20232;-68
2023/06/29 10:35:32;;;;;;;5.10;2.63;;;26.30;50.10;;;;;;20749189;28;20213;-66
2023/06/29 10:45:34;;;;;;;4.73;2.53;;;26.20;49.70;;;;;;20749027;28;20245;-64
2023/06/29 10:55:39;;;;;;;4.67;2.20;;;26.10;49.40;;;;;;20748087;28;20209;-64
2023/06/29 11:05:40;;;;;;;6.20;2.20;;;26.60;49.20;;;;;;20746991;28;20332;-67
2023/06/29 11:15:44;;;;;;;4.03;2.50;;;26.40;49.40;;;;;;20747662;28;20218;-65
2023/06/29 11:25:46;;;;;;;4.87;2.30;;;26.40;49.30;;;;;;20745239;28;20331;-65
2023/06/29 11:35:48;;;;;;;8.17;3.40;;;26.60;48.90;;;;;;20789108;28;20206;-66
2023/06/29 11:45:50;;;;;;;8.10;2.75;;;26.70;48.80;;;;;;20746248;28;20311;-68
2023/06/29 11:55:54;;;;;;;7.80;3.43;;;26.90;48.70;;;;;;20745458;28;20201;-64
2023/06/29 12:05:59;;;;;;;2.23;1.80;;;27.30;48.20;;;;;;20745080;28;20249;-69
2023/06/29 12:16:01;;;;;;;4.32;1.90;;;27.60;47.90;;;;;;20753508;28;20308;-68
2023/06/29 12:26:06;;;;;;;3.60;1.90;;;27.70;47.70;;;;;;20758906;28;20320;-65
2023/06/29 12:36:07;;;;;;;9.55;2.40;;;27.70;47.60;;;;;;20757139;28;20208;-66
2023/06/29 12:46:10;;;;;;;4.97;2.35;;;27.90;47.30;;;;;;20756058;28;20229;-66
2023/06/29 12:56:12;;;;;;;4.50;1.88;;;28.30;47.00;;;;;;20756877;28;20213;-65
2023/06/29 13:06:13;;;;;;;3.45;2.05;;;28.60;46.60;;;;;;20767367;28;20276;-65
2023/06/29 13:16:15;;;;;;;3.20;2.15;;;28.50;46.80;;;;;;20767208;28;20236;-70
2023/06/29 13:26:17;;;;;;;4.65;2.28;;;28.10;47.30;;;;;;20753399;28;20284;-69
2023/06/29 13:36:19;;;;;;;5.17;2.67;;;27.70;48.00;;;;;;20753852;28;20206;-68
2023/06/29 13:46:21;;;;;;;5.40;2.70;;;27.30;49.30;;;;;;20798202;28;20326;-63
2023/06/29 13:56:23;;;;;;;7.70;3.10;;;26.80;50.20;;;;;;20881025;28;20567;-64
2023/06/29 14:06:25;;;;;;;7.90;3.03;;;26.60;51.00;;;;;;20861459;28;20240;-64
2023/06/29 14:16:28;;;;;;;3.60;3.07;;;26.50;52.50;;;;;;20832274;28;20205;-61
2023/06/29 14:26:30;;;;;;;9.03;3.17;;;26.40;53.20;;;;;;20910209;28;20709;-72
2023/06/29 14:36:31;;;;;;;6.23;3.60;;;26.20;54.10;;;;;;20903445;28;20215;-66
2023/06/29 14:46:33;;;;;;;6.40;4.10;;;26.00;54.50;;;;;;20873151;28;20319;-71
2023/06/29 14:56:35;;;;;;;8.43;3.67;;;25.90;54.80;;;;;;20873838;28;20235;-64
2023/06/29 15:06:37;;;;;;;5.77;3.93;;;26.10;55.20;;;;;;20828073;28;20248;-64
2023/06/29 15:16:39;;;;;;;5.25;4.15;;;26.60;55.40;;;;;;20829097;28;20259;-60
2023/06/29 15:26:41;;;;;;;8.68;3.75;;;27.70;54.30;;;;;;20825665;28;20243;-61
2023/06/29 15:36:43;;;;;;;6.93;4.43;;;27.90;53.60;;;;;;20790961;28;20299;-67
2023/06/29 15:46:52;;;;;;;9.77;3.73;;;27.50;53.80;;;;;;20749203;28;20264;-66
2023/06/29 15:56:54;;;;;;;6.10;4.23;;;26.80;55.20;;;;;;20762124;28;20296;-67
2023/06/29 16:06:56;;;;;;;4.03;3.60;;;26.40;56.80;;;;;;20761243;28;20592;-64
2023/06/29 16:16:59;;;;;;;9.50;3.67;;;25.90;58.30;;;;;;20759661;28;20661;-66
2023/06/29 16:27:00;;;;;;;4.13;3.23;;;25.50;59.60;;;;;;20761861;28;20240;-65
2023/06/29 16:37:02;;;;;;;4.78;3.00;;;25.20;61.00;;;;;;20815931;28;20552;-66
2023/06/29 16:47:04;;;;;;;3.37;3.03;;;25.50;61.30;;;;;;20889316;28;20232;-65
2023/06/29 16:57:06;;;;;;;4.53;3.30;;;25.20;61.10;;;;;;20859961;28;20632;-67
2023/06/29 17:07:08;;;;;;;5.83;3.40;;;25.10;61.20;;;;;;20841625;28;20270;-62
2023/06/29 17:17:10;;;;;;;5.77;3.10;;;25.00;61.40;;;;;;20920238;28;20226;-61
2023/06/29 17:27:12;;;;;;;3.77;2.70;;;24.90;61.90;;;;;;20876935;28;20284;-61
2023/06/29 17:37:14;;;;;;;4.83;3.10;;;24.90;62.70;;;;;;20762754;28;20237;-62
2023/06/29 17:47:15;;;;;;;5.53;3.03;;;24.70;63.30;;;;;;20753848;28;20327;-61
2023/06/29 17:57:17;;;;;;;7.97;3.20;;;24.60;64.10;;;;;;20753000;28;20657;-61
2023/06/29 18:07:19;;;;;;;9.80;3.20;;;24.50;65.10;;;;;;20751668;28;20241;-62
2023/06/29 18:17:21;;;;;;;4.20;3.27;;;24.50;66.10;;;;;;20751222;28;20213;-63
2023/06/29 18:27:23;;;;;;;7.57;3.43;;;24.50;67.40;;;;;;20750672;28;20229;-64
2023/06/29 18:37:24;;;;;;;19.87;4.03;;;24.40;68.80;;;;;;20750193;28;20211;-63
2023/06/29 18:47:26;;;;;;;5.37;3.30;;;24.30;70.30;;;;;;20749995;28;20264;-62
2023/06/29 18:57:28;;;;;;;6.27;3.50;;;24.30;70.80;;;;;;20746616;28;20844;-64
2023/06/29 19:07:30;;;;;;;7.30;3.50;;;24.20;71.40;;;;;;20745847;28;20242;-64
2023/06/29 19:17:32;;;;;;;3.73;3.20;;;24.00;72.40;;;;;;20744765;28;20205;-70
2023/06/29 19:27:34;;;;;;;6.87;3.43;;;23.80;73.70;;;;;;20759039;28;20348;-62
2023/06/29 19:37:35;;;;;;;7.57;4.83;;;23.70;75.10;;;;;;20769558;28;20290;-65
2023/06/29 19:47:37;;;;;;;9.90;3.67;;;23.60;76.40;;;;;;20805023;28;20286;-69
2023/06/29 19:57:39;;;;;;;9.03;4.10;;;23.60;76.80;;;;;;20760097;28;20209;-68
2023/06/29 20:07:41;;;;;;;4.73;3.57;;;23.60;77.20;;;;;;20758767;28;20247;-69
2023/06/29 20:17:43;;;;;;;6.13;3.60;;;23.50;77.70;;;;;;20758978;28;20209;-67
2023/06/29 20:27:45;;;;;;;4.80;3.60;;;23.40;78.40;;;;;;20757243;28;20574;-68
2023/06/29 20:37:47;;;;;;;5.10;3.67;;;23.40;79.20;;;;;;20755946;28;20227;-65
2023/06/29 20:47:49;;;;;;;6.80;3.87;;;23.30;80.50;;;;;;20756494;28;20237;-62
2023/06/29 20:57:51;;;;;;;4.83;3.60;;;23.20;81.70;;;;;;20755518;28;20634;-67
2023/06/29 21:07:52;;;;;;;5.87;4.00;;;23.10;82.90;;;;;;20753723;28;20283;-64
2023/06/29 21:17:55;;;;;;;5.40;3.93;;;22.90;84.10;;;;;;20753205;28;20548;-69
2023/06/29 21:27:57;;;;;;;6.23;3.90;;;22.90;84.50;;;;;;20791923;28;20272;-70
2023/06/29 21:37:59;;;;;;;4.90;4.17;;;22.80;85.20;;;;;;20755615;28;20300;-63
2023/06/29 21:48:01;;;;;;;6.03;4.23;;;22.60;86.90;;;;;;20751597;28;20265;-68
2023/06/29 21:58:03;;;;;;;7.13;4.27;;;22.50;88.30;;;;;;20757016;28;20664;-65
2023/06/29 22:08:04;;;;;;;5.80;4.50;;;22.40;89.40;;;;;;20750583;28;20248;-63
2023/06/29 22:18:06;;;;;;;7.70;4.37;;;22.20;89.80;;;;;;20748198;28;20209;-67
2023/06/29 22:28:09;;;;;;;6.77;4.57;;;22.10;90.60;;;;;;20748742;28;20256;-68
2023/06/29 22:38:10;;;;;;;8.37;5.03;;;22.10;91.00;;;;;;20748027;28;20233;-66
2023/06/29 22:48:12;;;;;;;6.93;4.90;;;21.90;91.30;;;;;;20747220;28;20247;-65
2023/06/29 22:58:26;;;;;;;7.07;4.33;;;21.90;91.70;;;;;;20746752;28;20313;-70
2023/06/29 23:08:28;;;;;;;5.40;4.70;;;21.80;92.00;;;;;;20745661;28;20249;-64
2023/06/29 23:18:32;;;;;;;9.47;5.23;;;21.70;92.10;;;;;;20760758;28;20264;-70
2023/06/29 23:28:35;;;;;;;5.30;4.77;;;21.60;92.60;;;;;;20745559;28;20237;-62
2023/06/29 23:38:37;;;;;;;7.67;4.83;;;21.50;93.00;;;;;;20745064;28;20259;-63
2023/06/29 23:48:40;;;;;;;8.43;5.30;;;21.50;93.30;;;;;;20759242;28;20599;-62
2023/06/29 23:58:42;;;;;;;6.03;5.03;;;21.40;93.60;;;;;;20788346;28;20308;-71
